Terminal Aerodrome Forecast
Issued by NWS Honolulu, HI

Home | Current Version | Previous Version | Text Only | Print | Product List | Glossary On
Versions: 1 2 3 4 5 6 7 8 9 10 11 12 13 14 15 16 17 18 19 20 21 22 23 24 25 26 27
000
FTPA31 PHFO 280527
TAFHNL
TAF
PHNL 280527Z 2806/2912 06011KT P6SM FEW028 SCT045 BKN200
     FM281000 06008KT P6SM FEW028 SCT045 BKN200
     FM281900 06015G25KT P6SM FEW028 SCT045
     FM290500 05014KT P6SM FEW028 SCT045=

USA.gov is the U.S. government's official web portal to all federal, state and local government web resources and services.